createdAt,value
2018-07-23T00:01:00.139Z,99.90
2018-07-23T00:03:29.463Z,99.90
2018-07-23T00:05:58.520Z,99.90
2018-07-23T00:08:27.583Z,99.90
2018-07-23T00:10:56.637Z,99.90
2018-07-23T00:13:25.716Z,99.90
2018-07-23T00:15:54.768Z,99.90
2018-07-23T00:18:23.830Z,99.90
2018-07-23T00:20:52.887Z,99.90
2018-07-23T00:23:21.954Z,99.90
2018-07-23T00:25:51.008Z,99.90
2018-07-23T00:28:20.088Z,99.90
2018-07-23T00:30:49.143Z,99.90
2018-07-23T00:33:18.212Z,99.90
2018-07-23T00:35:47.255Z,99.90
2018-07-23T00:38:16.325Z,99.90
2018-07-23T00:40:45.384Z,99.90
2018-07-23T00:43:14.443Z,99.90
2018-07-23T00:45:43.512Z,99.90
2018-07-23T00:48:12.554Z,99.90
2018-07-23T00:50:41.622Z,99.90
2018-07-23T00:55:39.358Z,99.90
2018-07-23T00:58:08.408Z,99.90
2018-07-23T01:03:06.844Z,99.90
2018-07-23T01:05:38.004Z,99.90
2018-07-23T01:08:07.488Z,99.90
2018-07-23T01:10:36.592Z,99.90
2018-07-23T01:13:05.752Z,99.90
2018-07-23T01:15:34.824Z,99.90
2018-07-23T01:18:03.893Z,99.90
2018-07-23T01:20:32.984Z,99.90
2018-07-23T01:23:02.057Z,99.90
2018-07-23T01:25:31.144Z,99.90
2018-07-23T01:28:00.212Z,99.90
2018-07-23T01:30:29.300Z,99.90
2018-07-23T01:32:58.404Z,99.90
2018-07-23T01:35:27.499Z,99.90
2018-07-23T01:37:56.572Z,99.90
2018-07-23T01:40:25.667Z,99.90
2018-07-23T01:42:54.740Z,99.90
2018-07-23T01:45:23.827Z,99.90
2018-07-23T01:47:52.891Z,99.90
2018-07-23T01:52:50.678Z,99.90
2018-07-23T01:57:48.450Z,99.90
2018-07-23T02:00:17.569Z,99.90
2018-07-23T02:02:46.643Z,99.90
2018-07-23T02:05:15.727Z,99.90
2018-07-23T02:07:44.795Z,99.90
2018-07-23T02:10:13.922Z,99.90
2018-07-23T02:12:43.004Z,99.90
2018-07-23T02:15:12.084Z,99.90
2018-07-23T02:17:41.149Z,99.90
2018-07-23T02:20:10.224Z,99.90
2018-07-23T02:25:08.002Z,99.90
2018-07-23T02:32:34.484Z,99.90
2018-07-23T02:37:32.252Z,99.90
2018-07-23T02:40:01.316Z,99.90
2018-07-23T02:42:30.399Z,99.90
2018-07-23T02:44:59.460Z,99.90
2018-07-23T02:49:57.228Z,99.90
2018-07-23T02:52:26.322Z,99.90
2018-07-23T02:57:24.140Z,99.90
2018-07-23T02:59:53.205Z,99.90
2018-07-23T03:04:51.008Z,99.90
2018-07-23T03:07:20.092Z,99.90
2018-07-23T03:09:49.160Z,99.90
2018-07-23T03:12:18.256Z,99.90
2018-07-23T03:14:47.350Z,99.90
2018-07-23T03:17:16.437Z,99.90
2018-07-23T03:19:45.495Z,99.90
2018-07-23T03:22:14.592Z,99.90
2018-07-23T03:24:43.659Z,99.90
2018-07-23T03:27:12.736Z,99.90
2018-07-23T03:29:41.904Z,99.90
2018-07-23T03:32:10.988Z,99.90
2018-07-23T03:34:40.044Z,99.90
2018-07-23T03:37:09.120Z,99.90
2018-07-23T03:39:38.192Z,99.90
2018-07-23T03:42:07.268Z,99.90
2018-07-23T03:44:36.340Z,99.90
2018-07-23T03:49:34.139Z,99.90
2018-07-23T03:52:03.204Z,99.90
2018-07-23T03:54:32.281Z,99.90
2018-07-23T03:57:01.340Z,99.90
2018-07-23T03:59:30.425Z,99.90
2018-07-23T04:01:59.491Z,99.90
2018-07-23T04:04:28.584Z,99.90
2018-07-23T04:06:57.640Z,99.90
2018-07-23T04:09:26.720Z,99.90
2018-07-23T04:11:55.808Z,99.90
2018-07-23T04:14:25.263Z,99.90
2018-07-23T04:16:54.344Z,99.90
2018-07-23T04:19:23.435Z,99.90
2018-07-23T04:21:52.507Z,99.90
2018-07-23T04:24:21.599Z,99.90
2018-07-23T04:26:50.668Z,99.90
2018-07-23T04:31:48.483Z,99.90
2018-07-23T04:34:17.579Z,99.90
2018-07-23T04:36:46.656Z,99.90
2018-07-23T04:39:15.752Z,99.90
2018-07-23T04:41:44.828Z,99.90
2018-07-23T04:44:13.995Z,99.90
2018-07-23T04:46:43.068Z,99.90
2018-07-23T04:49:12.186Z,99.90
2018-07-23T04:51:41.327Z,99.90
2018-07-23T04:56:39.177Z,99.90
2018-07-23T04:59:08.245Z,99.90
2018-07-23T05:01:37.369Z,99.90
2018-07-23T05:04:06.460Z,99.90
2018-07-23T05:06:35.540Z,99.90
2018-07-23T05:09:08.444Z,99.90
2018-07-23T05:11:37.523Z,99.90
2018-07-23T05:14:07.231Z,99.90
2018-07-23T05:16:36.431Z,99.90
2018-07-23T05:19:05.563Z,99.90
2018-07-23T05:21:34.636Z,99.90
2018-07-23T05:24:03.736Z,99.90
2018-07-23T05:26:32.817Z,99.90
2018-07-23T05:29:01.916Z,99.90
2018-07-23T05:31:31.016Z,99.90
2018-07-23T05:34:00.088Z,99.90
2018-07-23T05:36:29.180Z,99.90
2018-07-23T05:38:58.252Z,99.90
2018-07-23T05:43:56.037Z,99.90
2018-07-23T05:48:53.815Z,99.90
2018-07-23T05:51:22.907Z,99.90
2018-07-23T05:53:51.976Z,99.90
2018-07-23T05:56:21.068Z,99.90
2018-07-23T05:58:50.188Z,99.90
2018-07-23T06:01:19.473Z,99.90
2018-07-23T06:03:48.674Z,99.90
2018-07-23T06:06:17.797Z,99.90
2018-07-23T06:08:46.868Z,99.90
2018-07-23T06:11:15.960Z,99.90
2018-07-23T06:16:13.761Z,99.90
2018-07-23T06:18:42.823Z,99.90
2018-07-23T06:21:11.912Z,99.90
2018-07-23T06:23:41.011Z,99.90
2018-07-23T06:26:10.103Z,99.90
2018-07-23T06:28:39.159Z,99.90
2018-07-23T06:31:08.248Z,99.90
2018-07-23T06:33:37.311Z,99.90
2018-07-23T06:36:06.423Z,99.90
2018-07-23T06:38:35.483Z,99.90
2018-07-23T06:41:04.567Z,99.90
2018-07-23T06:43:33.624Z,99.90
2018-07-23T06:46:02.719Z,99.90
2018-07-23T06:48:31.788Z,99.90
2018-07-23T06:51:00.879Z,99.90
2018-07-23T06:53:29.948Z,99.90
2018-07-23T06:55:59.052Z,99.90
2018-07-23T06:58:28.116Z,99.90
2018-07-23T07:00:57.194Z,99.90
2018-07-23T07:03:26.309Z,99.90
2018-07-23T07:10:52.779Z,99.90
2018-07-23T07:15:50.592Z,99.90
2018-07-23T07:18:19.767Z,99.90
2018-07-23T07:23:17.544Z,99.90
2018-07-23T07:30:44.000Z,99.90
2018-07-23T07:33:13.079Z,99.90
2018-07-23T07:35:42.160Z,99.90
2018-07-23T07:38:11.286Z,99.90
2018-07-23T07:40:40.752Z,99.90
2018-07-23T07:43:09.884Z,99.90
2018-07-23T07:45:38.959Z,99.90
2018-07-23T07:48:08.039Z,99.90
2018-07-23T07:50:37.100Z,99.90
2018-07-23T07:53:06.194Z,99.90
2018-07-23T07:55:35.248Z,99.90
2018-07-23T07:58:04.372Z,99.90
2018-07-23T08:00:33.436Z,99.90
2018-07-23T08:03:02.528Z,99.90
2018-07-23T08:05:31.599Z,99.60
2018-07-23T08:08:00.684Z,98.30
2018-07-23T08:10:29.752Z,98.90
2018-07-23T08:12:58.871Z,99.90
2018-07-23T08:15:27.952Z,97.50
2018-07-23T08:20:25.792Z,99.90
2018-07-23T08:22:54.888Z,97.30
2018-07-23T08:25:24.003Z,98.20
2018-07-23T08:27:53.182Z,99.90
2018-07-23T08:30:22.216Z,99.50
2018-07-23T08:32:51.283Z,99.90
2018-07-23T08:35:20.367Z,94.40
2018-07-23T08:37:49.436Z,93.30
2018-07-23T08:40:18.526Z,91.10
2018-07-23T08:42:47.600Z,90.70
2018-07-23T08:45:16.684Z,87.10
2018-07-23T08:47:45.756Z,90.10
2018-07-23T08:50:14.852Z,87.40
2018-07-23T08:52:43.941Z,84.50
2018-07-23T08:55:13.088Z,83.80
2018-07-23T09:02:39.556Z,78.30
2018-07-23T09:05:08.640Z,73.10
2018-07-23T09:07:37.712Z,71.60
2018-07-23T09:10:06.804Z,71.90
2018-07-23T09:12:35.884Z,73.90
2018-07-23T09:15:05.168Z,75.00
2018-07-23T09:17:34.290Z,77.40
2018-07-23T09:20:04.021Z,75.20
2018-07-23T09:22:33.502Z,72.80
2018-07-23T09:25:02.699Z,73.30
2018-07-23T09:27:31.764Z,75.80
2018-07-23T09:32:29.521Z,74.50
2018-07-23T09:34:58.615Z,71.20
2018-07-23T09:37:27.688Z,72.70
2018-07-23T09:39:56.764Z,74.90
2018-07-23T09:42:25.821Z,73.40
2018-07-23T09:44:54.892Z,69.60
2018-07-23T09:47:23.951Z,69.70
2018-07-23T09:49:53.023Z,69.20
2018-07-23T09:54:50.851Z,68.50
2018-07-23T09:57:19.908Z,65.70
2018-07-23T09:59:48.996Z,65.40
2018-07-23T10:04:46.740Z,64.70
2018-07-23T10:07:15.808Z,63.30
2018-07-23T10:09:44.880Z,63.60
2018-07-23T10:12:14.052Z,62.20
2018-07-23T10:14:43.104Z,64.30
2018-07-23T10:17:12.185Z,63.50
2018-07-23T10:19:41.235Z,64.00
2018-07-23T10:22:10.332Z,64.20
2018-07-23T10:24:39.383Z,63.30
2018-07-23T10:27:08.612Z,65.50
2018-07-23T10:29:37.672Z,63.90
2018-07-23T10:32:06.747Z,60.20
2018-07-23T10:34:35.799Z,59.70
2018-07-23T10:37:04.880Z,60.70
2018-07-23T10:39:33.940Z,59.60
2018-07-23T10:42:03.032Z,59.00
2018-07-23T10:44:32.111Z,59.60
2018-07-23T10:49:30.915Z,58.20
2018-07-23T10:51:59.991Z,61.40
2018-07-23T10:54:29.055Z,57.70
2018-07-23T10:56:58.138Z,56.10
2018-07-23T10:59:27.212Z,57.30
2018-07-23T11:04:25.624Z,53.40
2018-07-23T11:06:54.699Z,54.60
2018-07-23T11:11:52.484Z,54.00
2018-07-23T11:19:19.070Z,53.10
2018-07-23T11:21:48.353Z,53.70
2018-07-23T11:24:17.452Z,53.70
2018-07-23T11:26:46.580Z,53.00
2018-07-23T11:29:15.648Z,51.40
2018-07-23T11:31:44.734Z,51.40
2018-07-23T11:34:13.816Z,50.50
2018-07-23T11:36:42.881Z,50.50
2018-07-23T11:39:12.499Z,50.00
2018-07-23T11:41:41.626Z,48.50
2018-07-23T11:44:10.660Z,48.70
2018-07-23T11:46:39.740Z,48.40
2018-07-23T11:49:08.832Z,49.00
2018-07-23T11:54:06.740Z,47.50
2018-07-23T11:56:35.852Z,49.80
2018-07-23T11:59:04.920Z,46.00
2018-07-23T12:04:03.528Z,45.70
2018-07-23T12:06:32.596Z,45.10
2018-07-23T12:09:01.717Z,44.90
2018-07-23T12:11:30.856Z,45.10
2018-07-23T12:13:59.968Z,47.30
2018-07-23T12:16:29.091Z,45.00
2018-07-23T12:21:27.040Z,44.70
2018-07-23T12:23:56.135Z,45.40
2018-07-23T12:26:25.220Z,45.50
2018-07-23T12:28:54.307Z,47.50
2018-07-23T12:31:23.374Z,43.40
2018-07-23T12:36:21.180Z,42.30
2018-07-23T12:38:50.275Z,41.80
2018-07-23T12:41:19.339Z,40.80
2018-07-23T12:43:48.603Z,40.40
2018-07-23T12:46:17.671Z,41.10
2018-07-23T12:48:46.731Z,40.90
2018-07-23T12:51:15.808Z,40.70
2018-07-23T12:53:44.875Z,40.00
2018-07-23T12:56:14.049Z,38.80
2018-07-23T12:58:43.115Z,36.90
2018-07-23T13:01:12.395Z,34.40
2018-07-23T13:03:41.468Z,33.10
2018-07-23T13:06:10.545Z,33.00
2018-07-23T13:08:39.613Z,30.40
2018-07-23T13:13:37.520Z,37.30
2018-07-23T13:16:06.600Z,38.90
2018-07-23T13:21:04.520Z,39.80
2018-07-23T13:23:33.623Z,40.70
2018-07-23T13:26:02.704Z,39.70
2018-07-23T13:28:31.785Z,39.20
2018-07-23T13:33:29.548Z,37.10
2018-07-23T13:35:58.662Z,36.70
2018-07-23T13:38:27.728Z,35.80
2018-07-23T13:40:56.814Z,34.10
2018-07-23T13:43:25.880Z,34.30
2018-07-23T13:45:54.971Z,33.00
2018-07-23T13:48:24.060Z,32.60
2018-07-23T13:50:53.187Z,31.80
2018-07-23T13:53:22.255Z,29.70
2018-07-23T13:55:51.343Z,29.00
2018-07-23T14:03:17.796Z,28.70
2018-07-23T14:08:16.011Z,29.50
2018-07-23T14:10:45.126Z,30.00
2018-07-23T14:13:14.208Z,29.10
2018-07-23T14:15:43.276Z,29.20
2018-07-23T14:23:09.751Z,28.70
2018-07-23T14:28:07.644Z,28.20
2018-07-23T14:30:36.705Z,27.50
2018-07-23T14:33:05.971Z,27.40
2018-07-23T14:35:35.036Z,26.80
2018-07-23T14:40:32.969Z,27.60
2018-07-23T14:43:02.043Z,27.60
2018-07-23T14:45:31.107Z,27.40
2018-07-23T14:48:00.196Z,27.70
2018-07-23T14:50:29.252Z,27.30
2018-07-23T14:52:58.347Z,27.40
2018-07-23T14:55:27.631Z,26.90
2018-07-23T14:57:56.712Z,26.20
2018-07-23T15:00:25.789Z,26.40
2018-07-23T15:05:23.621Z,27.00
2018-07-23T15:07:52.823Z,25.60
2018-07-23T15:10:22.107Z,26.40
2018-07-23T15:12:51.211Z,26.70
2018-07-23T15:15:20.284Z,26.20
2018-07-23T15:17:49.389Z,25.10
2018-07-23T15:20:18.456Z,24.70
2018-07-23T15:30:13.758Z,24.10
2018-07-23T15:32:42.931Z,23.30
2018-07-23T15:37:40.781Z,25.20
2018-07-23T15:40:09.873Z,24.40
2018-07-23T15:42:38.990Z,24.60
2018-07-23T15:45:08.143Z,24.20
2018-07-23T15:47:37.204Z,23.50
2018-07-23T15:50:06.283Z,23.80
2018-07-23T15:52:35.599Z,24.10
2018-07-23T15:55:04.791Z,24.10
2018-07-23T16:04:59.971Z,26.10
2018-07-23T16:07:29.030Z,25.50
2018-07-23T16:09:58.104Z,25.30
2018-07-23T16:12:27.195Z,25.20
2018-07-23T16:14:56.279Z,25.40
2018-07-23T16:17:25.423Z,27.00
2018-07-23T16:19:54.507Z,26.90
2018-07-23T16:22:23.583Z,26.80
2018-07-23T16:24:52.667Z,26.80
2018-07-23T16:27:21.731Z,26.80
2018-07-23T16:29:50.811Z,27.10
2018-07-23T16:34:48.571Z,28.40
2018-07-23T16:37:17.635Z,28.90
2018-07-23T16:39:46.715Z,28.10
2018-07-23T16:42:15.773Z,29.80
2018-07-23T16:44:44.847Z,27.60
2018-07-23T16:47:13.916Z,27.50
2018-07-23T16:49:42.991Z,26.50
2018-07-23T16:52:12.057Z,25.80
2018-07-23T16:54:41.145Z,25.70
2018-07-23T16:57:10.248Z,26.20
2018-07-23T16:59:39.331Z,26.10
2018-07-23T17:02:08.403Z,26.40
2018-07-23T17:04:37.519Z,26.30
2018-07-23T17:07:06.615Z,26.50
2018-07-23T17:09:35.687Z,27.20
2018-07-23T17:12:04.767Z,27.40
2018-07-23T17:14:33.859Z,28.00
2018-07-23T17:17:02.932Z,28.00
2018-07-23T17:26:58.087Z,28.20
2018-07-23T17:29:27.147Z,27.90
2018-07-23T17:31:56.334Z,28.20
2018-07-23T17:34:25.468Z,27.40
2018-07-23T17:36:54.563Z,27.80
2018-07-23T17:39:23.619Z,28.30
2018-07-23T17:41:52.704Z,28.80
2018-07-23T17:44:22.023Z,29.70
2018-07-23T17:46:51.108Z,30.80
2018-07-23T17:49:20.166Z,29.30
2018-07-23T17:51:49.252Z,30.00
2018-07-23T17:54:18.347Z,30.00
2018-07-23T17:56:47.427Z,30.20
2018-07-23T17:59:16.492Z,30.10
2018-07-23T18:01:45.571Z,29.90
2018-07-23T18:04:14.651Z,31.00
2018-07-23T18:06:43.719Z,30.00
2018-07-23T18:09:13.578Z,29.60
2018-07-23T18:11:43.021Z,29.80
2018-07-23T18:14:12.132Z,29.90
2018-07-23T18:16:41.353Z,30.00
2018-07-23T18:21:39.150Z,29.90
2018-07-23T18:24:08.204Z,30.90
2018-07-23T18:26:37.275Z,31.30
2018-07-23T18:29:06.331Z,31.30
2018-07-23T18:31:35.419Z,32.40
2018-07-23T18:34:04.468Z,33.20
2018-07-23T18:36:33.523Z,33.20
2018-07-23T18:39:02.587Z,33.30
2018-07-23T18:41:31.644Z,34.30
2018-07-23T18:44:00.715Z,36.50
2018-07-23T18:46:29.767Z,36.80
2018-07-23T18:49:21.567Z,38.70
2018-07-23T18:51:51.600Z,37.80
2018-07-23T18:54:21.876Z,38.70
2018-07-23T18:56:52.980Z,39.80
2018-07-23T18:59:22.035Z,43.60
2018-07-23T19:01:52.073Z,42.60
2018-07-23T19:04:21.160Z,44.20
2018-07-23T19:06:50.451Z,44.10
2018-07-23T19:09:20.692Z,46.20
2018-07-23T19:11:50.803Z,46.90
2018-07-23T19:14:20.084Z,49.20
2018-07-23T19:16:49.802Z,52.00
2018-07-23T19:19:18.881Z,52.40
2018-07-23T19:24:16.632Z,54.50
2018-07-23T19:26:45.707Z,56.70
2018-07-23T19:29:14.790Z,57.80
2018-07-23T19:31:43.836Z,58.70
2018-07-23T19:34:12.904Z,57.90
2018-07-23T19:36:41.964Z,59.80
2018-07-23T19:39:12.510Z,61.20
2018-07-23T19:41:41.604Z,58.90
2018-07-23T19:44:11.118Z,61.90
2018-07-23T19:46:40.399Z,63.10
2018-07-23T19:49:09.474Z,60.30
2018-07-23T19:51:38.510Z,62.90
2018-07-23T19:54:08.218Z,63.60
2018-07-23T19:56:37.266Z,64.00
2018-07-23T19:59:06.415Z,67.40
2018-07-23T20:01:35.468Z,65.20
2018-07-23T20:09:02.441Z,71.20
2018-07-23T20:11:31.512Z,71.70
2018-07-23T20:14:00.596Z,69.40
2018-07-23T20:16:29.647Z,74.00
2018-07-23T20:18:58.724Z,74.20
2018-07-23T20:21:27.767Z,74.30
2018-07-23T20:23:56.873Z,70.70
2018-07-23T20:26:25.951Z,71.50
2018-07-23T20:28:55.012Z,73.00
2018-07-23T20:36:21.512Z,74.70
2018-07-23T20:38:50.612Z,76.40
2018-07-23T20:41:19.666Z,77.20
2018-07-23T20:43:48.720Z,76.50
2018-07-23T20:46:17.788Z,74.10
2018-07-23T20:48:46.842Z,74.60
2018-07-23T20:51:15.928Z,76.70
2018-07-23T20:53:44.976Z,77.60
2018-07-23T20:56:14.036Z,75.70
2018-07-23T20:58:43.086Z,79.30
2018-07-23T21:01:12.145Z,77.40
2018-07-23T21:03:41.191Z,83.60
2018-07-23T21:06:10.255Z,80.90
2018-07-23T21:08:39.302Z,80.70
2018-07-23T21:11:08.368Z,81.30
2018-07-23T21:13:37.430Z,85.30
2018-07-23T21:18:35.191Z,84.80
2018-07-23T21:21:04.254Z,83.30
2018-07-23T21:23:33.311Z,84.50
2018-07-23T21:26:02.384Z,81.50
2018-07-23T21:28:31.430Z,82.40
2018-07-23T21:31:00.503Z,82.40
2018-07-23T21:33:29.551Z,86.10
2018-07-23T21:35:58.653Z,86.10
2018-07-23T21:38:27.700Z,84.10
2018-07-23T21:40:56.766Z,86.80
2018-07-23T21:45:54.507Z,91.70
2018-07-23T21:48:23.555Z,92.20
2018-07-23T21:53:21.312Z,93.80
2018-07-23T21:55:50.379Z,94.70
2018-07-23T21:58:19.438Z,96.40
2018-07-23T22:00:48.525Z,98.00
2018-07-23T22:03:17.572Z,99.90
2018-07-23T22:05:46.623Z,99.90
2018-07-23T22:08:15.697Z,99.90
2018-07-23T22:10:44.748Z,99.90
2018-07-23T22:13:13.835Z,99.90
2018-07-23T22:15:42.884Z,99.90
2018-07-23T22:18:11.947Z,99.90
2018-07-23T22:20:40.991Z,99.90
2018-07-23T22:23:10.055Z,99.90
2018-07-23T22:25:39.107Z,99.90
2018-07-23T22:28:08.183Z,99.70
2018-07-23T22:33:06.172Z,99.70
2018-07-23T22:38:03.935Z,99.80
2018-07-23T22:40:33.272Z,99.90
2018-07-23T22:43:02.345Z,98.80
2018-07-23T22:45:31.395Z,99.90
2018-07-23T22:48:00.462Z,99.90
2018-07-23T22:50:29.503Z,99.90
2018-07-23T22:52:58.574Z,99.50
2018-07-23T22:55:27.643Z,99.90
2018-07-23T22:57:56.723Z,99.90
2018-07-23T23:02:54.495Z,99.90
2018-07-23T23:05:23.544Z,99.90
2018-07-23T23:07:52.614Z,99.90
2018-07-23T23:10:21.659Z,99.90
2018-07-23T23:12:50.748Z,99.90
2018-07-23T23:15:19.799Z,99.90
2018-07-23T23:17:48.867Z,99.90
2018-07-23T23:20:17.915Z,99.90
2018-07-23T23:22:46.978Z,99.90
2018-07-23T23:25:16.028Z,99.90
2018-07-23T23:27:45.111Z,99.90
2018-07-23T23:30:14.171Z,99.90
2018-07-23T23:32:43.238Z,99.90
2018-07-23T23:35:12.339Z,99.90
2018-07-23T23:37:41.384Z,99.90
2018-07-23T23:40:10.464Z,99.90
2018-07-23T23:42:39.507Z,99.90
2018-07-23T23:45:08.583Z,99.90
2018-07-23T23:47:37.635Z,99.90
2018-07-23T23:50:07.278Z,99.90
2018-07-23T23:52:36.369Z,99.90
2018-07-23T23:55:05.476Z,99.90
2018-07-23T23:57:34.522Z,99.90
